Time;durP1;ratioP1;P1;durP2;ratioP2;P2;SDS_P1;SDS_P2;PMS_P1;PMS_P2;Temp;Humidity;BMP_temperature;BMP_pressure;BME280_temperature;BME280_humidity;BME280_pressure;Samples;Min_cycle;Max_cycle;Signal;HPM_P1;HPM_P2
2021/11/16 00:00:00;;;;;;;22.17;17.90;;;7.40;99.90;;;;;;5032020;28;20183;-68
2021/11/16 00:02:26;;;;;;;18.37;16.40;;;7.50;99.90;;;;;;5032272;28;20249;-66
2021/11/16 00:04:52;;;;;;;22.57;16.30;;;7.40;99.90;;;;;;5033127;28;20211;-69
2021/11/16 00:07:18;;;;;;;22.43;17.43;;;7.50;99.90;;;;;;5035918;28;20211;-68
2021/11/16 00:09:46;;;;;;;21.77;17.60;;;7.50;99.90;;;;;;5035710;28;20175;-68
2021/11/16 00:12:12;;;;;;;23.30;18.80;;;7.40;99.90;;;;;;5035395;28;20179;-69
2021/11/16 00:14:38;;;;;;;24.30;18.87;;;7.40;99.90;;;;;;5035745;28;20187;-68
2021/11/16 00:17:04;;;;;;;20.07;16.80;;;7.40;99.90;;;;;;5035642;28;20229;-68
2021/11/16 00:19:29;;;;;;;20.67;17.73;;;7.40;99.90;;;;;;5034261;28;20262;-68
2021/11/16 00:21:58;;;;;;;26.87;19.33;;;7.40;99.90;;;;;;5035448;28;20163;-67
2021/11/16 00:24:37;;;;;;;22.87;18.47;;;7.50;99.90;;;;;;5035648;28;20203;-68
2021/11/16 00:27:05;;;;;;;20.77;18.07;;;7.50;99.90;;;;;;5034368;28;20227;-66
2021/11/16 00:29:31;;;;;;;24.37;18.17;;;7.50;99.90;;;;;;5035461;28;20645;-68
2021/11/16 00:31:57;;;;;;;23.70;19.13;;;7.50;99.90;;;;;;5036490;28;20322;-68
2021/11/16 00:34:22;;;;;;;23.70;18.13;;;7.50;99.90;;;;;;5037569;28;20556;-67
2021/11/16 00:36:48;;;;;;;22.00;17.23;;;7.50;99.90;;;;;;5037409;28;20187;-68
2021/11/16 00:39:14;;;;;;;21.23;18.13;;;7.50;99.90;;;;;;5038050;28;20171;-68
2021/11/16 00:41:39;;;;;;;23.67;17.33;;;7.60;99.90;;;;;;5037119;28;20184;-67
2021/11/16 00:44:05;;;;;;;22.50;19.03;;;7.60;99.90;;;;;;5037409;28;20708;-68
2021/11/16 00:46:30;;;;;;;21.73;17.83;;;7.70;99.90;;;;;;5035877;28;20179;-68
2021/11/16 00:48:56;;;;;;;26.47;18.37;;;7.70;99.90;;;;;;5037594;28;20167;-68
2021/11/16 00:51:22;;;;;;;21.97;18.67;;;7.70;99.90;;;;;;5037278;28;20170;-68
2021/11/16 00:53:47;;;;;;;21.17;18.83;;;7.70;99.90;;;;;;5035535;28;20187;-67
2021/11/16 00:56:13;;;;;;;22.50;18.70;;;7.80;99.90;;;;;;5036185;28;20224;-69
2021/11/16 00:58:39;;;;;;;24.43;19.20;;;7.80;99.90;;;;;;5034563;28;20187;-68
2021/11/16 01:01:05;;;;;;;23.23;19.13;;;7.80;99.90;;;;;;5034417;28;20180;-69
2021/11/16 01:03:31;;;;;;;24.00;20.47;;;7.70;99.90;;;;;;5034664;28;20210;-68
2021/11/16 01:05:57;;;;;;;27.73;21.80;;;7.70;99.90;;;;;;5034670;28;20222;-68
2021/11/16 01:08:24;;;;;;;24.17;19.00;;;7.60;99.90;;;;;;5034888;28;20200;-69
2021/11/16 01:10:51;;;;;;;20.40;17.33;;;7.50;99.90;;;;;;5034153;28;20233;-68
2021/11/16 01:13:18;;;;;;;21.53;18.30;;;7.40;99.90;;;;;;5034366;28;20203;-68
2021/11/16 01:15:45;;;;;;;19.83;16.20;;;7.40;99.90;;;;;;5033539;28;20264;-68
2021/11/16 01:18:12;;;;;;;21.80;17.03;;;7.40;99.90;;;;;;5034247;28;20184;-68
2021/11/16 01:20:39;;;;;;;18.73;16.67;;;7.40;99.90;;;;;;5032768;28;20186;-67
2021/11/16 01:23:07;;;;;;;20.70;16.57;;;7.40;99.90;;;;;;5033190;28;20586;-67
2021/11/16 01:25:37;;;;;;;22.37;16.80;;;7.30;99.90;;;;;;5034112;28;20187;-68
2021/11/16 01:28:10;;;;;;;22.57;17.77;;;7.40;99.90;;;;;;5034230;28;20317;-68
2021/11/16 01:30:36;;;;;;;23.60;18.67;;;7.40;99.90;;;;;;5033804;28;20644;-68
2021/11/16 01:33:08;;;;;;;19.27;17.17;;;7.40;99.90;;;;;;5034478;28;20195;-68
2021/11/16 01:35:36;;;;;;;20.90;17.23;;;7.50;99.90;;;;;;5034006;28;20174;-68
2021/11/16 01:38:04;;;;;;;19.10;16.97;;;7.40;99.90;;;;;;5033968;28;20179;-68
2021/11/16 01:40:30;;;;;;;21.13;18.67;;;7.40;99.90;;;;;;5033935;28;20202;-68
2021/11/16 01:42:56;;;;;;;20.60;18.53;;;7.40;99.90;;;;;;5033912;28;20222;-68
2021/11/16 01:45:23;;;;;;;20.20;16.30;;;7.40;99.90;;;;;;5034447;28;20175;-69
2021/11/16 01:47:49;;;;;;;21.80;17.23;;;7.50;99.90;;;;;;5033632;28;20189;-68
2021/11/16 01:50:18;;;;;;;20.00;16.80;;;7.50;99.90;;;;;;5033453;28;20633;-67
2021/11/16 01:52:45;;;;;;;23.67;17.90;;;7.50;99.90;;;;;;5033378;28;20179;-68
2021/11/16 01:55:12;;;;;;;20.27;17.17;;;7.50;99.90;;;;;;5033709;28;20210;-69
2021/11/16 01:57:38;;;;;;;25.10;19.40;;;7.50;99.90;;;;;;5034326;28;20186;-67
2021/11/16 02:00:08;;;;;;;20.53;18.43;;;7.50;99.90;;;;;;5033313;28;20266;-67
2021/11/16 02:02:34;;;;;;;20.93;18.80;;;7.50;99.90;;;;;;5033421;28;20215;-68
2021/11/16 02:05:00;;;;;;;23.70;18.47;;;7.50;99.90;;;;;;5033268;28;20215;-68
2021/11/16 02:07:25;;;;;;;18.53;16.07;;;7.50;99.90;;;;;;5033669;28;20171;-67
2021/11/16 02:09:51;;;;;;;19.87;17.77;;;7.50;99.90;;;;;;5033321;28;20180;-68
2021/11/16 02:12:17;;;;;;;20.63;18.27;;;7.50;99.90;;;;;;5034047;28;20184;-68
2021/11/16 02:14:42;;;;;;;20.43;18.40;;;7.60;99.90;;;;;;5033052;28;20204;-68
2021/11/16 02:17:08;;;;;;;21.07;18.50;;;7.60;99.90;;;;;;5032365;28;20210;-68
2021/11/16 02:19:35;;;;;;;27.70;23.27;;;7.60;99.90;;;;;;5032600;28;20629;-66
2021/11/16 02:22:01;;;;;;;23.50;19.17;;;7.50;99.90;;;;;;5033232;28;20167;-68
2021/11/16 02:24:26;;;;;;;20.03;17.07;;;7.50;99.90;;;;;;5033025;28;20222;-67
2021/11/16 02:26:52;;;;;;;19.77;14.67;;;7.50;99.90;;;;;;5033270;28;20401;-68
2021/11/16 02:29:18;;;;;;;17.83;15.40;;;7.50;99.90;;;;;;5031713;28;20798;-68
2021/11/16 02:31:45;;;;;;;18.43;15.50;;;7.40;99.90;;;;;;5033459;28;20539;-68
2021/11/16 02:34:11;;;;;;;21.53;16.10;;;7.30;99.90;;;;;;5032555;28;20203;-67
2021/11/16 02:36:37;;;;;;;17.67;14.80;;;7.30;99.90;;;;;;5033261;28;20201;-68
2021/11/16 02:39:05;;;;;;;18.63;16.63;;;7.20;99.90;;;;;;5032798;28;20187;-68
2021/11/16 02:41:34;;;;;;;21.20;15.13;;;7.20;99.90;;;;;;5033267;28;20217;-68
2021/11/16 02:44:02;;;;;;;21.33;14.43;;;7.20;99.90;;;;;;5032316;28;20691;-68
2021/11/16 02:46:28;;;;;;;18.40;14.07;;;7.30;99.90;;;;;;5032885;28;20187;-68
2021/11/16 02:48:53;;;;;;;17.70;13.40;;;7.40;99.90;;;;;;5032464;28;20186;-67
2021/11/16 02:51:20;;;;;;;18.23;14.27;;;7.40;99.90;;;;;;5032677;28;20182;-68
2021/11/16 02:53:46;;;;;;;18.53;15.73;;;7.50;99.90;;;;;;5032576;28;20219;-68
2021/11/16 02:56:11;;;;;;;18.80;16.80;;;7.50;99.90;;;;;;5032205;28;20187;-68
2021/11/16 02:58:38;;;;;;;17.60;15.77;;;7.60;99.90;;;;;;5032690;28;20183;-68
2021/11/16 03:01:17;;;;;;;18.30;14.77;;;7.60;99.90;;;;;;5032025;28;20698;-67
2021/11/16 03:03:43;;;;;;;18.97;16.00;;;7.60;99.90;;;;;;5032018;28;20207;-68
2021/11/16 03:06:10;;;;;;;19.33;16.07;;;7.60;99.90;;;;;;5031939;28;20183;-68
2021/11/16 03:08:36;;;;;;;19.77;15.43;;;7.60;99.90;;;;;;5032195;28;20199;-68
2021/11/16 03:11:06;;;;;;;19.00;15.93;;;7.60;99.90;;;;;;5030440;28;20175;-68
2021/11/16 03:13:36;;;;;;;16.47;14.20;;;7.50;99.90;;;;;;5031950;28;20624;-69
2021/11/16 03:16:09;;;;;;;18.07;15.07;;;7.50;99.90;;;;;;5031655;28;20186;-68
2021/11/16 03:18:35;;;;;;;21.47;16.27;;;7.60;99.90;;;;;;5031975;28;20207;-68
2021/11/16 03:21:01;;;;;;;23.33;17.43;;;7.60;99.90;;;;;;5031567;28;20187;-69
2021/11/16 03:23:27;;;;;;;18.90;16.83;;;7.60;99.90;;;;;;5032100;28;20211;-68
2021/11/16 03:25:59;;;;;;;19.07;16.50;;;7.60;99.90;;;;;;5031410;28;20697;-67
2021/11/16 03:28:27;;;;;;;18.83;15.63;;;7.60;99.90;;;;;;5032009;28;20186;-68
2021/11/16 03:30:58;;;;;;;20.17;16.03;;;7.60;99.90;;;;;;5031537;28;20214;-69
2021/11/16 03:33:26;;;;;;;21.53;15.33;;;7.60;99.90;;;;;;5032193;28;20235;-67
2021/11/16 03:35:52;;;;;;;18.37;15.77;;;7.70;99.90;;;;;;5031696;28;20190;-68
2021/11/16 03:38:20;;;;;;;19.83;15.60;;;7.60;99.90;;;;;;5031579;28;20187;-68
2021/11/16 03:40:48;;;;;;;18.03;16.00;;;7.60;99.90;;;;;;5034980;28;20187;-68
2021/11/16 03:43:16;;;;;;;16.70;14.73;;;7.60;99.90;;;;;;5035935;28;20199;-68
2021/11/16 03:45:43;;;;;;;18.40;14.63;;;7.50;99.90;;;;;;5035626;28;20633;-68
2021/11/16 03:48:10;;;;;;;17.80;15.37;;;7.50;99.90;;;;;;5035632;28;20171;-68
2021/11/16 03:50:36;;;;;;;18.80;14.87;;;7.50;99.90;;;;;;5035438;28;20182;-68
2021/11/16 03:53:03;;;;;;;15.77;14.27;;;7.40;99.90;;;;;;5035895;28;20207;-69
2021/11/16 03:55:35;;;;;;;18.33;14.83;;;7.40;99.90;;;;;;5035681;28;20179;-67
2021/11/16 03:58:02;;;;;;;16.30;14.57;;;7.30;99.90;;;;;;5035515;28;20234;-67
2021/11/16 04:00:32;;;;;;;16.23;13.87;;;7.30;99.90;;;;;;5033545;28;20203;-68
2021/11/16 04:02:59;;;;;;;14.80;13.30;;;7.20;99.90;;;;;;5015371;28;20613;-69
2021/11/16 04:05:25;;;;;;;14.67;13.13;;;7.20;99.90;;;;;;5022213;28;20270;-68
2021/11/16 04:07:52;;;;;;;16.83;14.03;;;7.30;99.90;;;;;;5035542;28;20171;-68
2021/11/16 04:10:18;;;;;;;17.10;14.67;;;7.30;99.90;;;;;;5035114;28;20175;-68
2021/11/16 04:12:44;;;;;;;15.93;14.23;;;7.30;99.90;;;;;;5035367;28;20186;-68
2021/11/16 04:15:12;;;;;;;17.77;14.43;;;7.30;99.90;;;;;;5035487;28;20183;-68
2021/11/16 04:17:40;;;;;;;19.07;14.00;;;7.40;99.90;;;;;;5035807;28;20188;-67
2021/11/16 04:20:12;;;;;;;16.53;14.50;;;7.40;99.90;;;;;;5035113;28;20523;-67
2021/11/16 04:22:37;;;;;;;18.10;14.73;;;7.40;99.90;;;;;;5035546;28;20195;-68
2021/11/16 04:25:05;;;;;;;18.80;15.50;;;7.40;99.90;;;;;;5033952;28;20568;-69
2021/11/16 04:27:30;;;;;;;20.17;16.03;;;7.40;99.90;;;;;;5035577;28;20175;-68
2021/11/16 04:29:56;;;;;;;16.33;14.27;;;7.40;99.90;;;;;;5033751;28;20551;-67
2021/11/16 04:32:22;;;;;;;16.10;14.13;;;7.40;99.90;;;;;;5035271;28;20207;-68
2021/11/16 04:34:47;;;;;;;17.83;14.20;;;7.40;99.90;;;;;;5035179;28;20338;-67
2021/11/16 04:37:13;;;;;;;15.73;14.03;;;7.40;99.90;;;;;;5035359;28;20541;-69
2021/11/16 04:39:39;;;;;;;20.53;15.20;;;7.40;99.90;;;;;;5033769;28;20206;-68
2021/11/16 04:42:05;;;;;;;19.10;15.53;;;7.40;99.90;;;;;;5034108;28;20176;-68
2021/11/16 04:44:30;;;;;;;19.33;14.77;;;7.30;99.90;;;;;;5035093;28;20211;-68
2021/11/16 04:46:57;;;;;;;18.17;14.57;;;7.30;99.90;;;;;;5034957;28;20182;-67
2021/11/16 04:59:53;;;;;;;20.17;14.73;;;7.20;99.90;;;;;;5034707;28;20687;-68
2021/11/16 05:05:16;;;;;;;17.93;15.13;;;7.10;99.90;;;;;;5034973;28;20297;-68
2021/11/16 05:07:47;;;;;;;20.00;16.40;;;7.10;99.90;;;;;;5035026;28;20183;-68
2021/11/16 05:10:12;;;;;;;22.33;14.67;;;7.20;99.90;;;;;;5033460;28;20168;-67
2021/11/16 05:12:38;;;;;;;20.37;16.27;;;7.20;99.90;;;;;;5034627;28;20591;-68
2021/11/16 05:15:09;;;;;;;20.97;15.90;;;7.30;99.90;;;;;;5034873;28;20595;-68
2021/11/16 05:17:35;;;;;;;24.03;15.70;;;7.20;99.90;;;;;;5033794;28;20607;-67
2021/11/16 05:20:01;;;;;;;18.93;15.13;;;7.20;99.90;;;;;;5034292;28;20241;-67
2021/11/16 05:22:27;;;;;;;17.30;14.77;;;7.20;99.90;;;;;;5034969;28;20241;-67
2021/11/16 05:24:53;;;;;;;19.23;15.60;;;7.20;99.90;;;;;;5034618;28;20203;-68
2021/11/16 05:27:19;;;;;;;20.30;15.40;;;7.20;99.90;;;;;;5034657;28;20187;-68
2021/11/16 05:29:44;;;;;;;22.60;15.70;;;7.20;99.90;;;;;;5034065;28;20179;-69
2021/11/16 05:32:10;;;;;;;18.23;15.83;;;7.20;99.90;;;;;;5034768;28;20613;-68
2021/11/16 05:34:36;;;;;;;24.23;16.47;;;7.20;99.90;;;;;;5034715;28;20554;-67
2021/11/16 05:37:01;;;;;;;17.67;13.87;;;7.20;99.90;;;;;;5034508;28;20214;-67
2021/11/16 05:39:27;;;;;;;19.93;15.07;;;7.20;99.90;;;;;;5033216;28;20234;-68
2021/11/16 05:41:53;;;;;;;19.67;13.67;;;7.10;99.90;;;;;;5034643;28;20274;-68
2021/11/16 05:44:19;;;;;;;16.00;13.80;;;7.10;99.90;;;;;;5033608;28;20614;-68
2021/11/16 05:46:45;;;;;;;19.20;13.90;;;7.10;99.90;;;;;;5034260;28;20187;-68
2021/11/16 05:49:11;;;;;;;20.17;15.70;;;7.10;99.90;;;;;;5033629;28;20202;-69
2021/11/16 05:51:37;;;;;;;16.17;14.47;;;7.20;99.90;;;;;;5034142;28;20182;-68
2021/11/16 05:54:05;;;;;;;21.17;15.53;;;7.20;99.90;;;;;;5033884;28;20234;-68
2021/11/16 05:56:34;;;;;;;17.30;14.77;;;7.20;99.90;;;;;;5033656;28;20221;-68
2021/11/16 05:59:01;;;;;;;18.57;14.90;;;7.20;99.90;;;;;;5033294;28;20179;-68
2021/11/16 06:01:30;;;;;;;20.37;14.70;;;7.30;99.90;;;;;;5034462;28;20591;-68
2021/11/16 06:03:57;;;;;;;18.50;15.93;;;7.30;99.90;;;;;;5034375;28;20746;-68
2021/11/16 06:06:25;;;;;;;21.13;16.40;;;7.30;99.90;;;;;;5034538;28;20199;-68
2021/11/16 06:08:52;;;;;;;20.73;15.67;;;7.30;99.90;;;;;;5033851;28;20176;-68
2021/11/16 06:11:19;;;;;;;19.60;14.50;;;7.30;99.90;;;;;;5033647;28;20664;-68
2021/11/16 06:13:46;;;;;;;16.70;14.23;;;7.30;99.90;;;;;;5033958;28;20211;-68
2021/11/16 06:16:12;;;;;;;19.23;15.03;;;7.30;99.90;;;;;;5033577;28;20175;-68
2021/11/16 06:18:39;;;;;;;19.07;14.77;;;7.30;99.90;;;;;;5033646;28;20701;-67
2021/11/16 06:21:05;;;;;;;17.97;14.80;;;7.20;99.90;;;;;;5034037;28;20199;-68
2021/11/16 06:23:33;;;;;;;18.37;13.67;;;7.30;99.90;;;;;;5033663;28;20210;-68
2021/11/16 06:26:02;;;;;;;18.53;15.20;;;7.30;99.90;;;;;;5033976;28;20180;-68
2021/11/16 06:28:27;;;;;;;23.57;15.60;;;7.30;99.90;;;;;;5033456;28;20182;-68
2021/11/16 06:30:53;;;;;;;20.43;15.77;;;7.20;99.90;;;;;;5033449;28;20187;-68
2021/11/16 06:33:21;;;;;;;23.60;17.33;;;7.20;99.90;;;;;;5033370;28;20206;-68
2021/11/16 06:35:46;;;;;;;19.30;17.13;;;7.10;99.90;;;;;;5033329;28;20179;-68
2021/11/16 06:38:12;;;;;;;21.73;18.83;;;7.10;99.90;;;;;;5034029;28;20191;-68
2021/11/16 06:40:38;;;;;;;26.93;18.23;;;7.10;99.90;;;;;;5033305;28;20229;-68
2021/11/16 06:43:04;;;;;;;22.70;16.80;;;7.10;99.90;;;;;;5034246;28;20207;-68
2021/11/16 06:45:29;;;;;;;25.17;16.87;;;7.10;99.90;;;;;;5034284;28;20207;-67
2021/11/16 06:47:55;;;;;;;25.60;17.43;;;7.10;99.90;;;;;;5034468;28;20187;-68
2021/11/16 06:50:20;;;;;;;19.23;14.77;;;7.10;99.90;;;;;;5033873;28;20186;-68
2021/11/16 06:52:46;;;;;;;18.37;15.17;;;7.10;99.90;;;;;;5035081;28;20198;-67
2021/11/16 06:55:12;;;;;;;19.97;16.20;;;7.00;99.90;;;;;;5034891;28;20167;-68
2021/11/16 06:57:39;;;;;;;24.77;18.00;;;6.90;99.90;;;;;;5034047;28;20194;-68
2021/11/16 07:00:07;;;;;;;21.80;16.30;;;6.80;99.90;;;;;;5032088;28;20533;-68
2021/11/16 07:02:33;;;;;;;25.07;17.03;;;6.70;99.90;;;;;;5015119;28;20168;-68
2021/11/16 07:05:06;;;;;;;23.27;16.73;;;6.60;99.90;;;;;;5028615;28;20207;-68
2021/11/16 07:07:41;;;;;;;26.70;17.57;;;6.60;99.90;;;;;;5034526;28;20169;-68
2021/11/16 07:10:07;;;;;;;31.13;19.00;;;6.60;99.90;;;;;;5034398;28;20182;-68
2021/11/16 07:12:32;;;;;;;31.67;20.50;;;6.60;99.90;;;;;;5034022;28;20182;-68
2021/11/16 07:14:58;;;;;;;32.67;19.87;;;6.60;99.90;;;;;;5033564;28;20278;-67
2021/11/16 07:17:24;;;;;;;24.87;18.70;;;6.60;99.90;;;;;;5032297;28;20225;-67
2021/11/16 07:19:56;;;;;;;22.20;18.90;;;6.70;99.90;;;;;;5014053;28;20169;-68
2021/11/16 07:22:23;;;;;;;26.97;19.47;;;6.70;99.90;;;;;;5016797;28;20167;-68
2021/11/16 07:24:56;;;;;;;25.73;18.40;;;6.70;99.90;;;;;;5032646;28;20273;-68
2021/11/16 07:27:43;;;;;;;24.17;16.27;;;6.70;99.90;;;;;;5033907;28;20234;-68
2021/11/16 07:30:24;;;;;;;24.07;18.40;;;6.80;99.90;;;;;;5033178;28;20277;-68
2021/11/16 07:32:56;;;;;;;30.53;16.90;;;6.80;99.90;;;;;;5032878;28;20505;-68
2021/11/16 07:35:25;;;;;;;23.70;17.00;;;6.90;99.90;;;;;;5033109;28;20176;-68
2021/11/16 07:37:55;;;;;;;23.50;16.17;;;6.90;99.90;;;;;;5031779;28;20179;-68
2021/11/16 07:40:21;;;;;;;21.00;15.97;;;6.90;99.90;;;;;;5032216;28;20266;-68
2021/11/16 07:42:50;;;;;;;18.57;14.17;;;7.00;99.90;;;;;;5032150;28;20207;-68
2021/11/16 07:45:17;;;;;;;21.33;14.97;;;7.00;99.90;;;;;;5020197;28;20238;-69
2021/11/16 07:48:00;;;;;;;18.47;15.10;;;7.00;99.90;;;;;;5011534;28;20255;-67
2021/11/16 07:50:31;;;;;;;18.60;14.43;;;7.00;99.90;;;;;;5020415;28;20179;-68
2021/11/16 07:53:17;;;;;;;17.90;15.10;;;7.00;99.90;;;;;;5032197;28;20586;-68
2021/11/16 07:55:53;;;;;;;19.63;15.20;;;7.10;99.90;;;;;;5031855;28;20194;-69
2021/11/16 07:58:24;;;;;;;24.90;16.40;;;7.10;99.90;;;;;;5032776;28;20664;-67
2021/11/16 08:00:51;;;;;;;21.37;14.53;;;7.10;99.90;;;;;;5032245;28;20290;-68
2021/11/16 08:03:22;;;;;;;22.70;14.40;;;7.10;99.90;;;;;;5032286;28;20214;-68
2021/11/16 08:08:26;;;;;;;17.63;14.17;;;7.10;99.90;;;;;;5031758;28;20531;-67
2021/11/16 08:11:12;;;;;;;16.50;14.07;;;7.00;99.90;;;;;;5031175;28;20203;-67
2021/11/16 08:14:00;;;;;;;20.90;15.53;;;7.00;99.90;;;;;;5031752;28;20187;-67
2021/11/16 08:16:30;;;;;;;19.37;14.90;;;7.00;99.90;;;;;;5030769;28;20180;-66
2021/11/16 08:19:02;;;;;;;20.93;15.57;;;7.00;99.90;;;;;;5029793;28;20202;-66
2021/11/16 08:21:27;;;;;;;23.83;16.23;;;7.00;99.90;;;;;;5031064;28;20763;-66
2021/11/16 08:23:59;;;;;;;20.33;16.07;;;7.00;99.90;;;;;;5030860;28;20233;-65
2021/11/16 08:26:31;;;;;;;22.87;15.63;;;7.10;99.90;;;;;;5033155;28;20613;-66
2021/11/16 08:28:57;;;;;;;24.93;17.13;;;7.10;99.90;;;;;;5034312;28;20270;-67
2021/11/16 08:31:23;;;;;;;26.53;18.23;;;7.20;99.90;;;;;;5034743;28;20243;-67
2021/11/16 08:33:51;;;;;;;23.53;17.13;;;7.30;99.90;;;;;;5034044;28;20195;-67
2021/11/16 08:36:18;;;;;;;25.07;16.47;;;7.20;99.90;;;;;;5034566;28;20641;-67
2021/11/16 08:38:44;;;;;;;23.53;16.80;;;7.10;99.90;;;;;;5034179;28;20238;-67
2021/11/16 08:41:23;;;;;;;23.57;16.43;;;7.10;99.90;;;;;;5034195;28;20203;-66
2021/11/16 08:43:49;;;;;;;22.87;16.17;;;7.20;99.90;;;;;;5033845;28;20214;-66
2021/11/16 08:46:18;;;;;;;22.13;16.00;;;7.20;99.90;;;;;;5034071;28;20178;-67
2021/11/16 08:48:47;;;;;;;22.43;16.80;;;7.10;99.90;;;;;;5032792;28;20178;-66
2021/11/16 08:51:17;;;;;;;25.70;18.07;;;7.20;99.90;;;;;;5034031;28;20195;-67
2021/11/16 08:53:44;;;;;;;26.80;18.10;;;7.30;99.90;;;;;;5033856;28;20187;-66
2021/11/16 08:56:27;;;;;;;22.43;16.43;;;7.30;99.90;;;;;;5032719;28;20266;-67
2021/11/16 08:58:53;;;;;;;24.47;16.77;;;7.20;99.90;;;;;;5014262;28;20596;-68
2021/11/16 09:01:19;;;;;;;25.23;16.50;;;7.20;99.90;;;;;;5014736;28;20537;-67
2021/11/16 09:03:47;;;;;;;21.50;14.77;;;7.20;99.90;;;;;;5033745;28;20208;-67
2021/11/16 09:06:20;;;;;;;23.43;15.93;;;7.10;99.90;;;;;;5033824;28;20529;-67
2021/11/16 09:09:10;;;;;;;25.93;16.77;;;7.10;99.90;;;;;;5033855;28;20175;-65
2021/11/16 09:11:35;;;;;;;26.80;16.63;;;7.10;99.90;;;;;;5033399;28;20207;-65
2021/11/16 09:14:13;;;;;;;24.43;17.73;;;7.10;99.90;;;;;;5033819;28;20223;-66
2021/11/16 09:16:41;;;;;;;26.73;18.93;;;7.10;99.90;;;;;;5033475;28;20175;-67
2021/11/16 09:19:07;;;;;;;26.07;19.33;;;7.10;99.90;;;;;;5033381;28;20167;-66
2021/11/16 09:21:38;;;;;;;27.97;17.77;;;7.10;99.90;;;;;;5033148;28;20309;-65
2021/11/16 09:24:10;;;;;;;20.57;17.33;;;7.10;99.90;;;;;;5033545;28;20210;-66
2021/11/16 09:26:52;;;;;;;29.90;17.40;;;7.10;99.90;;;;;;5033254;28;20190;-66
2021/11/16 09:29:21;;;;;;;27.43;16.70;;;7.10;99.90;;;;;;5033209;28;20163;-67
2021/11/16 09:31:56;;;;;;;27.60;17.53;;;7.20;99.90;;;;;;5033072;28;20717;-68
2021/11/16 09:34:27;;;;;;;31.20;19.33;;;7.20;99.90;;;;;;5033406;28;20187;-67
2021/11/16 09:37:00;;;;;;;27.10;17.33;;;7.20;99.90;;;;;;5032831;28;20183;-68
2021/11/16 09:39:38;;;;;;;26.13;17.17;;;7.10;99.90;;;;;;5033539;28;20253;-68
2021/11/16 09:42:07;;;;;;;22.00;16.37;;;7.10;99.90;;;;;;5033453;28;20265;-67
2021/11/16 09:44:42;;;;;;;28.40;17.23;;;7.10;99.90;;;;;;5032695;28;20252;-68
2021/11/16 09:47:19;;;;;;;27.33;15.80;;;7.20;99.90;;;;;;5033461;28;20539;-68
2021/11/16 09:49:46;;;;;;;22.23;16.07;;;7.20;99.90;;;;;;5032691;28;20266;-67
2021/11/16 09:52:16;;;;;;;27.73;16.83;;;7.20;99.90;;;;;;5033121;28;20168;-68
2021/11/16 09:55:00;;;;;;;25.07;16.97;;;7.30;99.90;;;;;;5032798;28;20195;-67
2021/11/16 09:57:31;;;;;;;18.60;14.07;;;7.40;99.90;;;;;;5033266;28;20174;-68
2021/11/16 10:00:23;;;;;;;21.10;16.07;;;7.50;99.90;;;;;;5032712;28;20591;-67
2021/11/16 10:03:02;;;;;;;21.73;15.17;;;7.60;99.90;;;;;;5032765;28;20237;-67
2021/11/16 10:05:38;;;;;;;17.33;12.33;;;7.70;99.90;;;;;;5013674;28;20172;-67
2021/11/16 10:08:04;;;;;;;17.43;13.07;;;7.70;99.90;;;;;;5013773;28;20179;-68
2021/11/16 10:10:37;;;;;;;17.57;13.07;;;7.70;99.90;;;;;;5032062;28;20175;-68
2021/11/16 10:13:09;;;;;;;14.63;11.63;;;7.70;99.90;;;;;;5032530;28;20571;-67
2021/11/16 10:15:38;;;;;;;13.90;12.40;;;7.70;99.90;;;;;;5013479;28;20251;-68
2021/11/16 10:18:04;;;;;;;14.40;12.87;;;7.70;99.90;;;;;;5032949;28;20172;-68
2021/11/16 10:20:36;;;;;;;13.53;12.03;;;7.80;99.90;;;;;;5032292;28;20635;-68
2021/11/16 10:23:07;;;;;;;13.80;11.37;;;7.80;99.90;;;;;;5032576;28;20688;-68
2021/11/16 10:25:34;;;;;;;12.97;11.67;;;7.80;99.90;;;;;;5032596;28;20168;-68
2021/11/16 10:28:12;;;;;;;12.37;10.50;;;7.80;99.90;;;;;;5032246;28;20266;-68
2021/11/16 10:30:39;;;;;;;13.57;11.17;;;7.80;99.90;;;;;;5031947;28;20171;-68
2021/11/16 10:33:13;;;;;;;13.57;11.87;;;7.80;99.90;;;;;;5032299;28;20203;-68
2021/11/16 10:35:51;;;;;;;13.53;12.13;;;7.80;99.90;;;;;;5032055;28;20217;-68
2021/11/16 10:38:20;;;;;;;12.20;11.07;;;7.80;99.90;;;;;;5032299;28;20180;-64
2021/11/16 10:40:47;;;;;;;13.20;11.90;;;7.80;99.90;;;;;;5031708;28;20203;-67
2021/11/16 10:43:13;;;;;;;13.33;12.13;;;7.80;99.90;;;;;;5031403;28;20634;-68
2021/11/16 10:45:43;;;;;;;14.07;12.70;;;7.80;99.90;;;;;;5032252;28;20172;-68
2021/11/16 10:48:12;;;;;;;11.50;10.50;;;7.70;99.90;;;;;;5031319;28;20586;-68
2021/11/16 10:50:39;;;;;;;12.27;10.97;;;7.80;99.90;;;;;;5016743;28;20176;-67
2021/11/16 10:53:10;;;;;;;16.60;15.07;;;7.80;99.90;;;;;;5030737;28;20241;-69
2021/11/16 10:55:41;;;;;;;14.97;13.67;;;7.70;99.90;;;;;;5015539;28;20176;-66
2021/11/16 10:58:08;;;;;;;15.07;13.73;;;7.70;99.90;;;;;;5031674;28;20234;-67
2021/11/16 11:00:42;;;;;;;13.20;12.10;;;7.80;99.90;;;;;;5031428;28;20182;-66
2021/11/16 11:03:27;;;;;;;14.90;12.10;;;7.80;99.90;;;;;;5031563;28;20208;-68
2021/11/16 11:06:05;;;;;;;12.67;11.53;;;7.80;99.90;;;;;;5031097;28;20266;-68
2021/11/16 11:08:37;;;;;;;14.10;11.60;;;7.80;99.90;;;;;;5030435;28;20178;-68
2021/11/16 11:11:14;;;;;;;12.67;11.37;;;7.90;99.90;;;;;;5031154;28;20443;-68
2021/11/16 11:13:40;;;;;;;11.43;10.40;;;7.90;99.90;;;;;;5031599;28;20213;-69
2021/11/16 11:16:13;;;;;;;11.83;10.73;;;7.90;99.90;;;;;;5031377;28;20270;-68
2021/11/16 11:18:41;;;;;;;15.23;13.93;;;7.80;99.90;;;;;;5031204;28;20183;-68
2021/11/16 11:21:21;;;;;;;13.87;12.70;;;7.80;99.90;;;;;;5031647;28;20645;-68
2021/11/16 11:23:49;;;;;;;13.17;11.87;;;7.80;99.90;;;;;;5030525;28;20265;-68
2021/11/16 11:26:33;;;;;;;13.03;11.00;;;7.80;99.90;;;;;;5029917;28;20207;-68
2021/11/16 11:31:38;;;;;;;13.43;12.23;;;7.60;99.90;;;;;;5030141;28;20201;-68
2021/11/16 11:34:03;;;;;;;14.77;13.43;;;7.60;99.90;;;;;;5031096;28;20595;-68
2021/11/16 11:36:29;;;;;;;14.50;13.07;;;7.70;99.90;;;;;;5029500;28;20183;-67
2021/11/16 11:38:55;;;;;;;13.33;11.97;;;7.70;99.90;;;;;;5030481;28;20527;-68
2021/11/16 11:41:23;;;;;;;12.60;11.57;;;7.70;99.90;;;;;;5030969;28;20176;-69
2021/11/16 11:44:14;;;;;;;13.23;11.97;;;7.70;99.90;;;;;;5031370;28;20207;-68
2021/11/16 11:46:55;;;;;;;13.57;12.27;;;7.70;99.90;;;;;;5031182;28;20187;-68
2021/11/16 11:49:21;;;;;;;12.53;11.37;;;7.70;99.90;;;;;;5030876;28;20510;-68
2021/11/16 11:51:47;;;;;;;12.40;11.10;;;7.60;99.90;;;;;;5011718;28;20199;-68
2021/11/16 11:54:14;;;;;;;13.17;11.93;;;7.60;99.90;;;;;;5024057;28;20253;-68
2021/11/16 11:56:40;;;;;;;11.77;10.77;;;7.50;99.90;;;;;;5030104;28;20254;-68
2021/11/16 11:59:06;;;;;;;13.60;12.20;;;7.60;99.90;;;;;;5031479;28;20292;-68
2021/11/16 12:01:32;;;;;;;13.20;12.00;;;7.60;99.90;;;;;;5034084;28;20183;-67
2021/11/16 12:03:59;;;;;;;14.83;12.70;;;7.70;99.90;;;;;;5016248;28;20294;-67
2021/11/16 12:06:26;;;;;;;12.73;11.53;;;7.80;99.90;;;;;;5020570;28;20172;-68
2021/11/16 12:08:53;;;;;;;12.73;11.57;;;7.90;99.90;;;;;;5033109;28;20582;-69
2021/11/16 12:11:20;;;;;;;11.63;10.60;;;7.90;99.90;;;;;;5034868;28;20653;-67
2021/11/16 12:13:46;;;;;;;12.27;11.00;;;7.90;99.90;;;;;;5033397;28;20282;-69
2021/11/16 12:16:27;;;;;;;12.80;11.70;;;7.90;99.90;;;;;;5034613;28;20297;-67
2021/11/16 12:19:09;;;;;;;11.80;10.60;;;7.90;99.90;;;;;;5018232;28;20183;-67
2021/11/16 12:21:38;;;;;;;10.67;9.77;;;7.90;99.90;;;;;;5034357;28;20175;-67
2021/11/16 12:24:07;;;;;;;12.47;11.27;;;7.80;99.90;;;;;;5034723;28;20256;-67
2021/11/16 12:26:54;;;;;;;12.23;11.07;;;7.80;99.90;;;;;;5036352;28;20226;-67
2021/11/16 12:29:22;;;;;;;12.60;11.70;;;7.70;99.90;;;;;;5034540;28;20175;-68
2021/11/16 12:31:50;;;;;;;14.23;13.03;;;7.70;99.90;;;;;;5034851;28;20180;-68
2021/11/16 12:34:38;;;;;;;11.83;10.77;;;7.80;99.90;;;;;;5034386;28;20780;-68
2021/11/16 12:37:08;;;;;;;12.23;11.33;;;7.80;99.90;;;;;;5036206;28;20537;-68
2021/11/16 12:39:34;;;;;;;11.57;10.50;;;7.80;99.90;;;;;;5035219;28;20179;-68
2021/11/16 12:42:18;;;;;;;13.80;12.60;;;7.80;99.90;;;;;;5034041;28;20186;-69
2021/11/16 12:44:47;;;;;;;11.67;10.67;;;7.60;99.90;;;;;;5033891;28;20676;-68
2021/11/16 12:47:15;;;;;;;11.93;10.83;;;7.60;99.90;;;;;;5033199;28;20254;-68
2021/11/16 12:49:46;;;;;;;11.53;10.37;;;7.70;99.90;;;;;;5031908;28;20194;-67
2021/11/16 12:52:21;;;;;;;11.93;10.83;;;7.60;99.90;;;;;;5034369;28;20258;-68
2021/11/16 12:54:47;;;;;;;10.50;9.60;;;7.70;99.90;;;;;;5033346;28;20234;-68
2021/11/16 12:57:15;;;;;;;10.30;9.40;;;7.80;99.90;;;;;;5033768;28;20254;-68
2021/11/16 12:59:43;;;;;;;10.67;9.67;;;7.80;99.90;;;;;;5033683;28;20182;-68
2021/11/16 13:02:31;;;;;;;11.83;10.73;;;7.70;99.90;;;;;;5033905;28;20234;-68
2021/11/16 13:05:10;;;;;;;12.23;10.67;;;7.70;99.90;;;;;;5033640;28;20221;-68